sensor_id;sensor_type;location;lat;lon;timestamp;P1;durP1;ratioP1;P2;durP2;ratioP2
12597;SDS011;6364;53.590;9.956;2023-11-19T00:00:33;22.27;;;14.60;;
12597;SDS011;6364;53.590;9.956;2023-11-19T00:02:59;23.42;;;14.00;;
12597;SDS011;6364;53.590;9.956;2023-11-19T00:05:24;24.15;;;14.85;;
12597;SDS011;6364;53.590;9.956;2023-11-19T00:07:50;24.85;;;14.18;;
12597;SDS011;6364;53.590;9.956;2023-11-19T00:10:15;22.77;;;13.10;;
12597;SDS011;6364;53.590;9.956;2023-11-19T00:12:44;27.17;;;13.95;;
12597;SDS011;6364;53.590;9.956;2023-11-19T00:15:11;24.30;;;13.48;;
12597;SDS011;6364;53.590;9.956;2023-11-19T00:17:40;23.13;;;13.18;;
12597;SDS011;6364;53.590;9.956;2023-11-19T00:20:09;24.10;;;11.90;;
12597;SDS011;6364;53.590;9.956;2023-11-19T00:22:54;18.92;;;11.55;;
12597;SDS011;6364;53.590;9.956;2023-11-19T00:25:19;21.92;;;12.18;;
12597;SDS011;6364;53.590;9.956;2023-11-19T00:27:46;15.93;;;10.23;;
12597;SDS011;6364;53.590;9.956;2023-11-19T00:30:13;18.88;;;11.35;;
12597;SDS011;6364;53.590;9.956;2023-11-19T00:32:39;16.63;;;9.75;;
12597;SDS011;6364;53.590;9.956;2023-11-19T00:35:05;19.25;;;10.15;;
12597;SDS011;6364;53.590;9.956;2023-11-19T00:37:32;17.70;;;10.98;;
12597;SDS011;6364;53.590;9.956;2023-11-19T00:39:57;19.45;;;10.75;;
12597;SDS011;6364;53.590;9.956;2023-11-19T00:42:23;16.23;;;10.40;;
12597;SDS011;6364;53.590;9.956;2023-11-19T00:44:49;17.98;;;10.18;;
12597;SDS011;6364;53.590;9.956;2023-11-19T00:47:15;14.88;;;9.13;;
12597;SDS011;6364;53.590;9.956;2023-11-19T00:49:40;17.83;;;9.75;;
12597;SDS011;6364;53.590;9.956;2023-11-19T00:52:05;12.80;;;8.73;;
12597;SDS011;6364;53.590;9.956;2023-11-19T00:54:31;14.07;;;8.48;;
12597;SDS011;6364;53.590;9.956;2023-11-19T00:56:57;15.30;;;9.60;;
12597;SDS011;6364;53.590;9.956;2023-11-19T00:59:22;16.55;;;9.77;;
12597;SDS011;6364;53.590;9.956;2023-11-19T01:01:47;16.77;;;10.05;;
12597;SDS011;6364;53.590;9.956;2023-11-19T01:04:13;13.35;;;8.93;;
12597;SDS011;6364;53.590;9.956;2023-11-19T01:06:39;15.98;;;9.30;;
12597;SDS011;6364;53.590;9.956;2023-11-19T01:09:05;11.98;;;8.32;;
12597;SDS011;6364;53.590;9.956;2023-11-19T01:11:30;12.45;;;8.55;;
12597;SDS011;6364;53.590;9.956;2023-11-19T01:13:56;17.08;;;8.68;;
12597;SDS011;6364;53.590;9.956;2023-11-19T01:16:21;12.38;;;9.05;;
12597;SDS011;6364;53.590;9.956;2023-11-19T01:18:47;12.80;;;8.40;;
12597;SDS011;6364;53.590;9.956;2023-11-19T01:21:14;11.07;;;7.75;;
12597;SDS011;6364;53.590;9.956;2023-11-19T01:23:39;10.88;;;7.07;;
12597;SDS011;6364;53.590;9.956;2023-11-19T01:26:05;10.77;;;7.30;;
12597;SDS011;6364;53.590;9.956;2023-11-19T01:28:31;10.35;;;7.07;;
12597;SDS011;6364;53.590;9.956;2023-11-19T01:30:56;9.35;;;6.65;;
12597;SDS011;6364;53.590;9.956;2023-11-19T01:33:21;8.85;;;5.95;;
12597;SDS011;6364;53.590;9.956;2023-11-19T01:35:47;8.48;;;6.45;;
12597;SDS011;6364;53.590;9.956;2023-11-19T01:38:12;8.90;;;6.53;;
12597;SDS011;6364;53.590;9.956;2023-11-19T01:40:37;8.82;;;6.07;;
12597;SDS011;6364;53.590;9.956;2023-11-19T01:43:03;8.35;;;6.70;;
12597;SDS011;6364;53.590;9.956;2023-11-19T01:45:29;10.63;;;7.63;;
12597;SDS011;6364;53.590;9.956;2023-11-19T01:47:59;10.80;;;7.35;;
12597;SDS011;6364;53.590;9.956;2023-11-19T01:50:25;10.13;;;7.57;;
12597;SDS011;6364;53.590;9.956;2023-11-19T01:52:52;12.38;;;7.95;;
12597;SDS011;6364;53.590;9.956;2023-11-19T01:55:18;17.42;;;7.85;;
12597;SDS011;6364;53.590;9.956;2023-11-19T01:57:45;11.65;;;7.80;;
12597;SDS011;6364;53.590;9.956;2023-11-19T02:00:11;13.85;;;7.35;;
12597;SDS011;6364;53.590;9.956;2023-11-19T02:02:37;14.50;;;7.15;;
12597;SDS011;6364;53.590;9.956;2023-11-19T02:05:04;8.32;;;6.32;;
12597;SDS011;6364;53.590;9.956;2023-11-19T02:07:30;8.85;;;5.68;;
12597;SDS011;6364;53.590;9.956;2023-11-19T02:09:56;9.38;;;6.03;;
12597;SDS011;6364;53.590;9.956;2023-11-19T02:12:24;6.03;;;4.63;;
12597;SDS011;6364;53.590;9.956;2023-11-19T02:14:49;7.22;;;4.53;;
12597;SDS011;6364;53.590;9.956;2023-11-19T02:17:27;10.38;;;5.40;;
12597;SDS011;6364;53.590;9.956;2023-11-19T02:19:56;8.95;;;5.32;;
12597;SDS011;6364;53.590;9.956;2023-11-19T02:22:23;6.68;;;5.15;;
12597;SDS011;6364;53.590;9.956;2023-11-19T02:24:49;6.50;;;5.25;;
12597;SDS011;6364;53.590;9.956;2023-11-19T02:27:51;7.15;;;5.30;;
12597;SDS011;6364;53.590;9.956;2023-11-19T02:30:24;5.55;;;4.13;;
12597;SDS011;6364;53.590;9.956;2023-11-19T02:32:52;8.20;;;4.97;;
12597;SDS011;6364;53.590;9.956;2023-11-19T02:35:19;9.32;;;5.00;;
12597;SDS011;6364;53.590;9.956;2023-11-19T02:37:46;7.95;;;5.13;;
12597;SDS011;6364;53.590;9.956;2023-11-19T02:40:12;6.93;;;5.05;;
12597;SDS011;6364;53.590;9.956;2023-11-19T02:42:38;6.05;;;4.10;;
12597;SDS011;6364;53.590;9.956;2023-11-19T02:45:03;4.72;;;4.20;;
12597;SDS011;6364;53.590;9.956;2023-11-19T02:47:31;3.67;;;3.25;;
12597;SDS011;6364;53.590;9.956;2023-11-19T02:49:56;3.70;;;3.22;;
12597;SDS011;6364;53.590;9.956;2023-11-19T02:52:22;3.75;;;2.88;;
12597;SDS011;6364;53.590;9.956;2023-11-19T02:54:48;4.32;;;3.03;;
12597;SDS011;6364;53.590;9.956;2023-11-19T02:57:13;3.67;;;2.92;;
12597;SDS011;6364;53.590;9.956;2023-11-19T02:59:39;4.65;;;3.40;;
12597;SDS011;6364;53.590;9.956;2023-11-19T03:02:06;5.30;;;3.63;;
12597;SDS011;6364;53.590;9.956;2023-11-19T03:04:36;5.05;;;4.00;;
12597;SDS011;6364;53.590;9.956;2023-11-19T03:07:01;5.57;;;4.30;;
12597;SDS011;6364;53.590;9.956;2023-11-19T03:09:27;11.23;;;5.07;;
12597;SDS011;6364;53.590;9.956;2023-11-19T03:11:54;5.95;;;4.47;;
12597;SDS011;6364;53.590;9.956;2023-11-19T03:14:19;5.32;;;4.03;;
12597;SDS011;6364;53.590;9.956;2023-11-19T03:16:45;5.72;;;4.30;;
12597;SDS011;6364;53.590;9.956;2023-11-19T03:19:11;5.97;;;4.65;;
12597;SDS011;6364;53.590;9.956;2023-11-19T03:21:37;6.22;;;4.75;;
12597;SDS011;6364;53.590;9.956;2023-11-19T03:24:02;7.90;;;4.70;;
12597;SDS011;6364;53.590;9.956;2023-11-19T03:26:28;5.07;;;4.45;;
12597;SDS011;6364;53.590;9.956;2023-11-19T03:28:54;5.35;;;4.72;;
12597;SDS011;6364;53.590;9.956;2023-11-19T03:31:19;6.13;;;5.22;;
12597;SDS011;6364;53.590;9.956;2023-11-19T03:33:45;7.05;;;5.50;;
12597;SDS011;6364;53.590;9.956;2023-11-19T03:36:10;6.65;;;5.32;;
12597;SDS011;6364;53.590;9.956;2023-11-19T03:38:37;5.85;;;5.32;;
12597;SDS011;6364;53.590;9.956;2023-11-19T03:41:12;7.07;;;5.88;;
12597;SDS011;6364;53.590;9.956;2023-11-19T03:43:38;9.68;;;6.63;;
12597;SDS011;6364;53.590;9.956;2023-11-19T03:46:05;8.05;;;5.82;;
12597;SDS011;6364;53.590;9.956;2023-11-19T03:48:40;8.20;;;7.05;;
12597;SDS011;6364;53.590;9.956;2023-11-19T03:51:05;8.93;;;6.80;;
12597;SDS011;6364;53.590;9.956;2023-11-19T03:53:30;8.40;;;7.15;;
12597;SDS011;6364;53.590;9.956;2023-11-19T03:55:56;11.15;;;7.80;;
12597;SDS011;6364;53.590;9.956;2023-11-19T03:58:21;13.35;;;10.48;;
12597;SDS011;6364;53.590;9.956;2023-11-19T04:00:46;10.25;;;7.90;;
12597;SDS011;6364;53.590;9.956;2023-11-19T04:03:12;12.48;;;7.63;;
12597;SDS011;6364;53.590;9.956;2023-11-19T04:05:38;14.68;;;8.43;;
12597;SDS011;6364;53.590;9.956;2023-11-19T04:08:03;13.82;;;9.00;;
12597;SDS011;6364;53.590;9.956;2023-11-19T04:10:28;12.48;;;8.30;;
12597;SDS011;6364;53.590;9.956;2023-11-19T04:12:54;12.18;;;8.38;;
12597;SDS011;6364;53.590;9.956;2023-11-19T04:15:19;12.50;;;8.60;;
12597;SDS011;6364;53.590;9.956;2023-11-19T04:17:44;14.57;;;10.25;;
12597;SDS011;6364;53.590;9.956;2023-11-19T04:20:10;17.17;;;9.35;;
12597;SDS011;6364;53.590;9.956;2023-11-19T04:22:38;13.55;;;9.88;;
12597;SDS011;6364;53.590;9.956;2023-11-19T04:25:04;15.30;;;9.70;;
12597;SDS011;6364;53.590;9.956;2023-11-19T04:27:30;15.05;;;10.02;;
12597;SDS011;6364;53.590;9.956;2023-11-19T04:29:55;16.25;;;10.07;;
12597;SDS011;6364;53.590;9.956;2023-11-19T04:32:21;16.83;;;11.23;;
12597;SDS011;6364;53.590;9.956;2023-11-19T04:34:46;23.80;;;11.43;;
12597;SDS011;6364;53.590;9.956;2023-11-19T04:37:12;16.33;;;11.30;;
12597;SDS011;6364;53.590;9.956;2023-11-19T04:39:37;22.63;;;12.20;;
12597;SDS011;6364;53.590;9.956;2023-11-19T04:42:03;25.48;;;12.82;;
12597;SDS011;6364;53.590;9.956;2023-11-19T04:44:29;19.48;;;12.73;;
12597;SDS011;6364;53.590;9.956;2023-11-19T04:46:55;20.33;;;12.95;;
12597;SDS011;6364;53.590;9.956;2023-11-19T04:49:20;21.42;;;12.65;;
12597;SDS011;6364;53.590;9.956;2023-11-19T04:51:45;23.52;;;13.77;;
12597;SDS011;6364;53.590;9.956;2023-11-19T04:54:14;24.13;;;13.38;;
12597;SDS011;6364;53.590;9.956;2023-11-19T04:56:40;29.08;;;13.73;;
12597;SDS011;6364;53.590;9.956;2023-11-19T04:59:05;26.85;;;14.50;;
12597;SDS011;6364;53.590;9.956;2023-11-19T05:01:31;31.38;;;14.55;;
12597;SDS011;6364;53.590;9.956;2023-11-19T05:03:57;30.42;;;15.93;;
12597;SDS011;6364;53.590;9.956;2023-11-19T05:06:25;36.58;;;17.02;;
12597;SDS011;6364;53.590;9.956;2023-11-19T05:08:55;31.00;;;16.60;;
12597;SDS011;6364;53.590;9.956;2023-11-19T05:11:26;39.95;;;17.05;;
12597;SDS011;6364;53.590;9.956;2023-11-19T05:13:53;40.65;;;17.15;;
12597;SDS011;6364;53.590;9.956;2023-11-19T05:16:19;43.83;;;18.67;;
12597;SDS011;6364;53.590;9.956;2023-11-19T05:18:45;40.55;;;19.70;;
12597;SDS011;6364;53.590;9.956;2023-11-19T05:21:11;44.25;;;19.75;;
12597;SDS011;6364;53.590;9.956;2023-11-19T05:23:36;52.05;;;20.08;;
12597;SDS011;6364;53.590;9.956;2023-11-19T05:26:05;50.83;;;21.80;;
12597;SDS011;6364;53.590;9.956;2023-11-19T05:28:30;55.45;;;21.70;;
12597;SDS011;6364;53.590;9.956;2023-11-19T05:30:56;61.03;;;23.25;;
12597;SDS011;6364;53.590;9.956;2023-11-19T05:33:21;58.50;;;22.80;;
12597;SDS011;6364;53.590;9.956;2023-11-19T05:35:47;63.28;;;25.10;;
12597;SDS011;6364;53.590;9.956;2023-11-19T05:38:12;64.60;;;25.83;;
12597;SDS011;6364;53.590;9.956;2023-11-19T05:40:38;65.97;;;26.50;;
12597;SDS011;6364;53.590;9.956;2023-11-19T05:43:04;78.75;;;29.15;;
12597;SDS011;6364;53.590;9.956;2023-11-19T05:45:30;76.13;;;29.63;;
12597;SDS011;6364;53.590;9.956;2023-11-19T05:47:56;84.50;;;30.02;;
12597;SDS011;6364;53.590;9.956;2023-11-19T05:50:21;83.95;;;31.58;;
12597;SDS011;6364;53.590;9.956;2023-11-19T05:52:47;90.35;;;32.30;;
12597;SDS011;6364;53.590;9.956;2023-11-19T05:55:12;91.32;;;32.95;;
12597;SDS011;6364;53.590;9.956;2023-11-19T05:57:39;82.20;;;31.17;;
12597;SDS011;6364;53.590;9.956;2023-11-19T06:00:07;98.70;;;33.03;;
12597;SDS011;6364;53.590;9.956;2023-11-19T06:02:33;90.88;;;31.80;;
12597;SDS011;6364;53.590;9.956;2023-11-19T06:04:59;89.28;;;32.80;;
12597;SDS011;6364;53.590;9.956;2023-11-19T06:07:25;91.57;;;33.95;;
12597;SDS011;6364;53.590;9.956;2023-11-19T06:09:51;90.15;;;34.13;;
12597;SDS011;6364;53.590;9.956;2023-11-19T06:12:17;95.90;;;33.33;;
12597;SDS011;6364;53.590;9.956;2023-11-19T06:14:42;99.40;;;33.08;;
12597;SDS011;6364;53.590;9.956;2023-11-19T06:17:07;101.82;;;32.72;;
12597;SDS011;6364;53.590;9.956;2023-11-19T06:19:33;88.18;;;32.35;;
12597;SDS011;6364;53.590;9.956;2023-11-19T06:21:59;100.50;;;33.58;;
12597;SDS011;6364;53.590;9.956;2023-11-19T06:24:24;97.88;;;33.50;;
12597;SDS011;6364;53.590;9.956;2023-11-19T06:26:50;93.53;;;32.38;;
12597;SDS011;6364;53.590;9.956;2023-11-19T06:29:15;94.07;;;31.30;;
12597;SDS011;6364;53.590;9.956;2023-11-19T06:31:44;88.38;;;30.05;;
12597;SDS011;6364;53.590;9.956;2023-11-19T06:34:09;91.10;;;29.35;;
12597;SDS011;6364;53.590;9.956;2023-11-19T06:36:35;79.72;;;29.40;;
12597;SDS011;6364;53.590;9.956;2023-11-19T06:39:00;79.10;;;28.92;;
12597;SDS011;6364;53.590;9.956;2023-11-19T06:41:26;77.32;;;28.17;;
12597;SDS011;6364;53.590;9.956;2023-11-19T06:43:52;84.88;;;27.30;;
12597;SDS011;6364;53.590;9.956;2023-11-19T06:46:17;97.55;;;27.35;;
12597;SDS011;6364;53.590;9.956;2023-11-19T06:48:43;93.43;;;25.83;;
12597;SDS011;6364;53.590;9.956;2023-11-19T06:51:09;72.85;;;23.80;;
12597;SDS011;6364;53.590;9.956;2023-11-19T06:53:35;76.47;;;22.50;;
12597;SDS011;6364;53.590;9.956;2023-11-19T06:56:01;76.22;;;25.20;;
12597;SDS011;6364;53.590;9.956;2023-11-19T06:58:31;84.75;;;23.17;;
12597;SDS011;6364;53.590;9.956;2023-11-19T07:00:57;74.93;;;22.17;;
12597;SDS011;6364;53.590;9.956;2023-11-19T07:03:22;78.88;;;23.55;;
12597;SDS011;6364;53.590;9.956;2023-11-19T07:05:47;73.43;;;21.30;;
12597;SDS011;6364;53.590;9.956;2023-11-19T07:08:13;63.08;;;20.50;;
12597;SDS011;6364;53.590;9.956;2023-11-19T07:10:39;71.70;;;20.33;;
12597;SDS011;6364;53.590;9.956;2023-11-19T07:13:04;74.65;;;19.73;;
12597;SDS011;6364;53.590;9.956;2023-11-19T07:15:31;55.80;;;15.98;;
12597;SDS011;6364;53.590;9.956;2023-11-19T07:17:57;56.88;;;16.95;;
12597;SDS011;6364;53.590;9.956;2023-11-19T07:20:24;62.65;;;17.38;;
12597;SDS011;6364;53.590;9.956;2023-11-19T07:22:51;56.42;;;14.80;;
12597;SDS011;6364;53.590;9.956;2023-11-19T07:25:17;61.08;;;15.07;;
12597;SDS011;6364;53.590;9.956;2023-11-19T07:27:42;56.22;;;14.73;;
12597;SDS011;6364;53.590;9.956;2023-11-19T07:30:08;56.30;;;15.10;;
12597;SDS011;6364;53.590;9.956;2023-11-19T07:32:33;55.03;;;12.95;;
12597;SDS011;6364;53.590;9.956;2023-11-19T07:34:59;59.33;;;12.15;;
12597;SDS011;6364;53.590;9.956;2023-11-19T07:37:24;58.55;;;10.90;;
12597;SDS011;6364;53.590;9.956;2023-11-19T07:39:50;52.90;;;10.95;;
12597;SDS011;6364;53.590;9.956;2023-11-19T07:42:15;48.95;;;9.70;;
12597;SDS011;6364;53.590;9.956;2023-11-19T07:44:41;56.15;;;10.00;;
12597;SDS011;6364;53.590;9.956;2023-11-19T07:47:08;50.30;;;9.32;;
12597;SDS011;6364;53.590;9.956;2023-11-19T07:49:33;48.65;;;9.23;;
12597;SDS011;6364;53.590;9.956;2023-11-19T07:51:58;66.40;;;11.18;;
12597;SDS011;6364;53.590;9.956;2023-11-19T07:54:24;55.92;;;9.80;;
12597;SDS011;6364;53.590;9.956;2023-11-19T07:56:49;63.22;;;10.80;;
12597;SDS011;6364;53.590;9.956;2023-11-19T07:59:15;68.60;;;11.07;;
12597;SDS011;6364;53.590;9.956;2023-11-19T08:01:40;61.50;;;10.68;;
12597;SDS011;6364;53.590;9.956;2023-11-19T08:04:06;59.80;;;9.80;;
12597;SDS011;6364;53.590;9.956;2023-11-19T08:06:31;61.50;;;10.63;;
12597;SDS011;6364;53.590;9.956;2023-11-19T08:08:57;64.30;;;10.02;;
12597;SDS011;6364;53.590;9.956;2023-11-19T08:11:22;57.28;;;10.13;;
12597;SDS011;6364;53.590;9.956;2023-11-19T08:13:47;77.85;;;11.80;;
12597;SDS011;6364;53.590;9.956;2023-11-19T08:16:13;62.50;;;10.63;;
12597;SDS011;6364;53.590;9.956;2023-11-19T08:18:41;58.10;;;9.68;;
12597;SDS011;6364;53.590;9.956;2023-11-19T08:21:07;64.32;;;9.32;;
12597;SDS011;6364;53.590;9.956;2023-11-19T08:23:33;57.78;;;8.90;;
12597;SDS011;6364;53.590;9.956;2023-11-19T08:25:58;55.72;;;9.00;;
12597;SDS011;6364;53.590;9.956;2023-11-19T08:28:24;56.22;;;7.97;;
12597;SDS011;6364;53.590;9.956;2023-11-19T08:30:50;61.83;;;7.72;;
12597;SDS011;6364;53.590;9.956;2023-11-19T08:33:15;63.75;;;8.25;;
12597;SDS011;6364;53.590;9.956;2023-11-19T08:35:41;53.50;;;8.07;;
12597;SDS011;6364;53.590;9.956;2023-11-19T08:38:07;54.60;;;8.20;;
12597;SDS011;6364;53.590;9.956;2023-11-19T08:40:32;50.22;;;7.60;;
12597;SDS011;6364;53.590;9.956;2023-11-19T08:42:57;60.50;;;7.70;;
12597;SDS011;6364;53.590;9.956;2023-11-19T08:45:23;49.83;;;7.32;;
12597;SDS011;6364;53.590;9.956;2023-11-19T08:47:48;40.30;;;7.20;;
12597;SDS011;6364;53.590;9.956;2023-11-19T08:50:15;56.65;;;7.65;;
12597;SDS011;6364;53.590;9.956;2023-11-19T08:52:40;47.42;;;6.85;;
12597;SDS011;6364;53.590;9.956;2023-11-19T08:55:05;45.58;;;7.07;;
12597;SDS011;6364;53.590;9.956;2023-11-19T08:57:31;54.95;;;7.75;;
12597;SDS011;6364;53.590;9.956;2023-11-19T08:59:58;45.38;;;7.25;;
12597;SDS011;6364;53.590;9.956;2023-11-19T09:02:23;52.28;;;7.70;;
12597;SDS011;6364;53.590;9.956;2023-11-19T09:04:48;54.25;;;7.57;;
12597;SDS011;6364;53.590;9.956;2023-11-19T09:07:14;49.20;;;7.38;;
12597;SDS011;6364;53.590;9.956;2023-11-19T09:09:39;52.13;;;7.15;;
12597;SDS011;6364;53.590;9.956;2023-11-19T09:12:05;46.92;;;6.97;;
12597;SDS011;6364;53.590;9.956;2023-11-19T09:14:31;39.90;;;7.15;;
12597;SDS011;6364;53.590;9.956;2023-11-19T09:16:56;49.92;;;7.30;;
12597;SDS011;6364;53.590;9.956;2023-11-19T09:19:23;34.53;;;6.57;;
12597;SDS011;6364;53.590;9.956;2023-11-19T09:21:48;48.13;;;7.10;;
12597;SDS011;6364;53.590;9.956;2023-11-19T09:24:14;50.67;;;8.13;;
12597;SDS011;6364;53.590;9.956;2023-11-19T09:26:40;40.08;;;6.72;;
12597;SDS011;6364;53.590;9.956;2023-11-19T09:29:06;44.17;;;7.10;;
12597;SDS011;6364;53.590;9.956;2023-11-19T09:31:37;41.67;;;7.00;;
12597;SDS011;6364;53.590;9.956;2023-11-19T09:34:03;49.40;;;6.43;;
12597;SDS011;6364;53.590;9.956;2023-11-19T09:36:28;37.22;;;5.97;;
12597;SDS011;6364;53.590;9.956;2023-11-19T09:38:53;42.40;;;6.43;;
12597;SDS011;6364;53.590;9.956;2023-11-19T09:41:19;53.55;;;7.00;;
12597;SDS011;6364;53.590;9.956;2023-11-19T09:43:44;45.55;;;7.38;;
12597;SDS011;6364;53.590;9.956;2023-11-19T09:46:10;46.80;;;6.30;;
12597;SDS011;6364;53.590;9.956;2023-11-19T09:48:37;42.55;;;6.78;;
12597;SDS011;6364;53.590;9.956;2023-11-19T09:51:03;41.85;;;6.18;;
12597;SDS011;6364;53.590;9.956;2023-11-19T09:53:29;45.20;;;7.00;;
12597;SDS011;6364;53.590;9.956;2023-11-19T09:55:55;43.95;;;7.10;;
12597;SDS011;6364;53.590;9.956;2023-11-19T09:58:22;53.58;;;7.40;;
12597;SDS011;6364;53.590;9.956;2023-11-19T10:00:47;41.65;;;6.60;;
12597;SDS011;6364;53.590;9.956;2023-11-19T10:03:14;45.33;;;6.55;;
12597;SDS011;6364;53.590;9.956;2023-11-19T10:05:40;42.47;;;7.00;;
12597;SDS011;6364;53.590;9.956;2023-11-19T10:08:05;57.13;;;8.52;;
12597;SDS011;6364;53.590;9.956;2023-11-19T10:10:31;36.83;;;6.15;;
12597;SDS011;6364;53.590;9.956;2023-11-19T10:12:57;44.20;;;6.93;;
12597;SDS011;6364;53.590;9.956;2023-11-19T10:15:23;40.95;;;7.55;;
12597;SDS011;6364;53.590;9.956;2023-11-19T10:17:50;42.75;;;6.38;;
12597;SDS011;6364;53.590;9.956;2023-11-19T10:20:15;47.72;;;7.50;;
12597;SDS011;6364;53.590;9.956;2023-11-19T10:22:41;35.17;;;6.40;;
12597;SDS011;6364;53.590;9.956;2023-11-19T10:28:01;41.33;;;7.13;;
12597;SDS011;6364;53.590;9.956;2023-11-19T10:30:28;51.85;;;7.80;;
12597;SDS011;6364;53.590;9.956;2023-11-19T10:33:07;53.05;;;7.68;;
12597;SDS011;6364;53.590;9.956;2023-11-19T10:35:35;48.30;;;7.63;;
12597;SDS011;6364;53.590;9.956;2023-11-19T10:38:24;49.35;;;7.55;;
12597;SDS011;6364;53.590;9.956;2023-11-19T10:40:51;45.22;;;7.07;;
12597;SDS011;6364;53.590;9.956;2023-11-19T10:43:17;60.20;;;7.53;;
12597;SDS011;6364;53.590;9.956;2023-11-19T10:45:43;50.05;;;7.93;;
12597;SDS011;6364;53.590;9.956;2023-11-19T10:48:11;49.55;;;7.28;;
12597;SDS011;6364;53.590;9.956;2023-11-19T10:50:38;42.20;;;7.13;;
12597;SDS011;6364;53.590;9.956;2023-11-19T10:53:05;45.78;;;7.22;;
12597;SDS011;6364;53.590;9.956;2023-11-19T10:55:35;47.47;;;6.82;;
12597;SDS011;6364;53.590;9.956;2023-11-19T10:58:04;59.30;;;8.38;;
12597;SDS011;6364;53.590;9.956;2023-11-19T11:00:32;46.92;;;7.97;;
12597;SDS011;6364;53.590;9.956;2023-11-19T11:03:02;52.38;;;8.38;;
12597;SDS011;6364;53.590;9.956;2023-11-19T11:05:41;53.70;;;7.22;;
12597;SDS011;6364;53.590;9.956;2023-11-19T11:08:07;49.13;;;6.85;;
12597;SDS011;6364;53.590;9.956;2023-11-19T11:10:35;61.28;;;8.82;;
12597;SDS011;6364;53.590;9.956;2023-11-19T11:13:04;48.17;;;7.13;;
12597;SDS011;6364;53.590;9.956;2023-11-19T11:15:30;55.38;;;7.00;;
12597;SDS011;6364;53.590;9.956;2023-11-19T11:18:00;53.78;;;7.03;;
12597;SDS011;6364;53.590;9.956;2023-11-19T11:20:27;49.20;;;6.75;;
12597;SDS011;6364;53.590;9.956;2023-11-19T11:22:57;47.33;;;7.03;;
12597;SDS011;6364;53.590;9.956;2023-11-19T11:25:38;40.72;;;6.28;;
12597;SDS011;6364;53.590;9.956;2023-11-19T11:28:15;52.75;;;6.93;;
12597;SDS011;6364;53.590;9.956;2023-11-19T11:30:52;45.70;;;6.30;;
12597;SDS011;6364;53.590;9.956;2023-11-19T11:36:28;44.92;;;7.25;;
12597;SDS011;6364;53.590;9.956;2023-11-19T11:38:54;40.70;;;6.45;;
12597;SDS011;6364;53.590;9.956;2023-11-19T11:41:23;49.58;;;6.53;;
12597;SDS011;6364;53.590;9.956;2023-11-19T11:43:51;44.25;;;6.55;;
12597;SDS011;6364;53.590;9.956;2023-11-19T11:47:00;44.22;;;7.00;;
12597;SDS011;6364;53.590;9.956;2023-11-19T11:49:06;43.22;;;6.57;;
12597;SDS011;6364;53.590;9.956;2023-11-19T11:54:31;40.22;;;6.18;;
12597;SDS011;6364;53.590;9.956;2023-11-19T11:57:09;40.17;;;6.97;;
12597;SDS011;6364;53.590;9.956;2023-11-19T12:02:07;44.40;;;6.28;;
12597;SDS011;6364;53.590;9.956;2023-11-19T12:04:34;48.30;;;6.88;;
12597;SDS011;6364;53.590;9.956;2023-11-19T12:07:33;54.00;;;7.32;;
12597;SDS011;6364;53.590;9.956;2023-11-19T12:09:52;50.85;;;7.38;;
12597;SDS011;6364;53.590;9.956;2023-11-19T12:12:21;52.33;;;7.57;;
12597;SDS011;6364;53.590;9.956;2023-11-19T12:15:00;55.70;;;8.27;;
12597;SDS011;6364;53.590;9.956;2023-11-19T12:19:59;51.70;;;6.40;;
12597;SDS011;6364;53.590;9.956;2023-11-19T12:22:28;43.10;;;6.20;;
12597;SDS011;6364;53.590;9.956;2023-11-19T12:24:53;43.03;;;6.05;;
12597;SDS011;6364;53.590;9.956;2023-11-19T12:27:19;46.08;;;6.50;;
12597;SDS011;6364;53.590;9.956;2023-11-19T12:29:47;44.67;;;6.85;;
12597;SDS011;6364;53.590;9.956;2023-11-19T12:32:13;39.00;;;6.35;;
12597;SDS011;6364;53.590;9.956;2023-11-19T12:34:38;38.92;;;6.35;;
12597;SDS011;6364;53.590;9.956;2023-11-19T12:37:04;44.55;;;7.03;;
12597;SDS011;6364;53.590;9.956;2023-11-19T12:39:30;38.38;;;6.90;;
12597;SDS011;6364;53.590;9.956;2023-11-19T12:41:56;35.80;;;5.20;;
12597;SDS011;6364;53.590;9.956;2023-11-19T12:44:24;43.28;;;6.30;;
12597;SDS011;6364;53.590;9.956;2023-11-19T12:46:59;37.40;;;6.75;;
12597;SDS011;6364;53.590;9.956;2023-11-19T12:49:36;39.83;;;6.85;;
12597;SDS011;6364;53.590;9.956;2023-11-19T12:52:02;47.42;;;6.22;;
12597;SDS011;6364;53.590;9.956;2023-11-19T12:54:34;39.97;;;6.45;;
12597;SDS011;6364;53.590;9.956;2023-11-19T12:57:00;38.83;;;6.35;;
12597;SDS011;6364;53.590;9.956;2023-11-19T12:59:27;41.35;;;5.68;;
12597;SDS011;6364;53.590;9.956;2023-11-19T13:01:56;39.47;;;6.45;;
12597;SDS011;6364;53.590;9.956;2023-11-19T13:04:22;38.58;;;6.18;;
12597;SDS011;6364;53.590;9.956;2023-11-19T13:06:47;36.92;;;5.60;;
12597;SDS011;6364;53.590;9.956;2023-11-19T13:09:22;50.70;;;6.50;;
12597;SDS011;6364;53.590;9.956;2023-11-19T13:11:52;45.83;;;6.47;;
12597;SDS011;6364;53.590;9.956;2023-11-19T13:14:19;45.83;;;6.38;;
12597;SDS011;6364;53.590;9.956;2023-11-19T13:16:45;48.03;;;6.65;;
12597;SDS011;6364;53.590;9.956;2023-11-19T13:19:12;36.28;;;6.00;;
12597;SDS011;6364;53.590;9.956;2023-11-19T13:21:37;41.30;;;6.85;;
12597;SDS011;6364;53.590;9.956;2023-11-19T13:24:05;43.92;;;6.57;;
12597;SDS011;6364;53.590;9.956;2023-11-19T13:26:31;46.20;;;6.63;;
12597;SDS011;6364;53.590;9.956;2023-11-19T13:28:56;40.88;;;5.93;;
12597;SDS011;6364;53.590;9.956;2023-11-19T13:31:22;37.72;;;7.32;;
12597;SDS011;6364;53.590;9.956;2023-11-19T13:33:47;37.00;;;5.85;;
12597;SDS011;6364;53.590;9.956;2023-11-19T13:36:12;42.05;;;6.82;;
12597;SDS011;6364;53.590;9.956;2023-11-19T13:38:38;38.65;;;6.13;;
12597;SDS011;6364;53.590;9.956;2023-11-19T13:41:05;47.78;;;6.32;;
12597;SDS011;6364;53.590;9.956;2023-11-19T13:43:31;38.00;;;6.55;;
12597;SDS011;6364;53.590;9.956;2023-11-19T13:45:57;39.78;;;6.95;;
12597;SDS011;6364;53.590;9.956;2023-11-19T13:48:25;39.45;;;6.07;;
12597;SDS011;6364;53.590;9.956;2023-11-19T13:50:52;41.88;;;6.97;;
12597;SDS011;6364;53.590;9.956;2023-11-19T13:53:17;47.47;;;7.28;;
12597;SDS011;6364;53.590;9.956;2023-11-19T13:55:43;45.03;;;6.85;;
12597;SDS011;6364;53.590;9.956;2023-11-19T13:58:08;48.33;;;7.07;;
12597;SDS011;6364;53.590;9.956;2023-11-19T14:00:35;40.78;;;6.70;;
12597;SDS011;6364;53.590;9.956;2023-11-19T14:03:00;32.50;;;5.75;;
12597;SDS011;6364;53.590;9.956;2023-11-19T14:05:25;51.42;;;7.55;;
12597;SDS011;6364;53.590;9.956;2023-11-19T14:07:51;46.78;;;6.32;;
12597;SDS011;6364;53.590;9.956;2023-11-19T14:10:17;44.72;;;6.90;;
12597;SDS011;6364;53.590;9.956;2023-11-19T14:12:42;45.88;;;6.75;;
12597;SDS011;6364;53.590;9.956;2023-11-19T14:15:09;45.88;;;6.82;;
12597;SDS011;6364;53.590;9.956;2023-11-19T14:17:38;48.15;;;6.85;;
12597;SDS011;6364;53.590;9.956;2023-11-19T14:20:04;42.78;;;6.45;;
12597;SDS011;6364;53.590;9.956;2023-11-19T14:25:03;40.90;;;6.38;;
12597;SDS011;6364;53.590;9.956;2023-11-19T14:27:30;39.60;;;6.32;;
12597;SDS011;6364;53.590;9.956;2023-11-19T14:29:55;35.38;;;5.40;;
12597;SDS011;6364;53.590;9.956;2023-11-19T14:32:20;42.78;;;7.07;;
12597;SDS011;6364;53.590;9.956;2023-11-19T14:34:46;48.97;;;7.28;;
12597;SDS011;6364;53.590;9.956;2023-11-19T14:37:11;35.90;;;5.45;;
12597;SDS011;6364;53.590;9.956;2023-11-19T14:39:36;36.45;;;6.10;;
12597;SDS011;6364;53.590;9.956;2023-11-19T14:42:02;39.15;;;5.70;;
12597;SDS011;6364;53.590;9.956;2023-11-19T14:44:30;41.10;;;6.32;;
12597;SDS011;6364;53.590;9.956;2023-11-19T14:46:55;41.55;;;5.95;;
12597;SDS011;6364;53.590;9.956;2023-11-19T14:49:21;46.63;;;6.68;;
12597;SDS011;6364;53.590;9.956;2023-11-19T14:51:46;39.65;;;6.28;;
12597;SDS011;6364;53.590;9.956;2023-11-19T14:54:12;52.47;;;6.65;;
12597;SDS011;6364;53.590;9.956;2023-11-19T14:56:39;23.92;;;3.95;;
12597;SDS011;6364;53.590;9.956;2023-11-19T14:59:05;32.30;;;5.28;;